sensor_id;sensor_type;location;lat;lon;timestamp;pressure;altitude;pressure_sealevel;temperature;humidity
82807;BME280;72563;44.816;20.484;2023-09-19T00:01:12;100296.28;;;23.89;47.32
82807;BME280;72563;44.816;20.484;2023-09-19T00:03:39;100286.50;;;24.22;45.38
82807;BME280;72563;44.816;20.484;2023-09-19T00:06:05;100274.78;;;23.44;46.88
82807;BME280;72563;44.816;20.484;2023-09-19T00:08:32;100266.56;;;23.88;47.61
82807;BME280;72563;44.816;20.484;2023-09-19T00:10:58;100277.28;;;24.18;46.62
82807;BME280;72563;44.816;20.484;2023-09-19T00:13:31;100263.31;;;24.04;45.78
82807;BME280;72563;44.816;20.484;2023-09-19T00:15:57;100252.91;;;23.90;44.95
82807;BME280;72563;44.816;20.484;2023-09-19T00:18:24;100248.66;;;24.30;45.56
82807;BME280;72563;44.816;20.484;2023-09-19T00:20:58;100257.91;;;24.31;44.06
82807;BME280;72563;44.816;20.484;2023-09-19T00:23:23;100261.34;;;24.52;45.18
82807;BME280;72563;44.816;20.484;2023-09-19T00:25:50;100266.94;;;23.94;44.65
82807;BME280;72563;44.816;20.484;2023-09-19T00:28:16;100274.22;;;23.88;46.25
82807;BME280;72563;44.816;20.484;2023-09-19T00:30:44;100266.75;;;24.33;45.18
82807;BME280;72563;44.816;20.484;2023-09-19T00:33:09;100254.72;;;24.29;44.73
82807;BME280;72563;44.816;20.484;2023-09-19T00:35:37;100263.69;;;24.06;45.31
82807;BME280;72563;44.816;20.484;2023-09-19T00:38:02;100256.25;;;24.33;44.03
82807;BME280;72563;44.816;20.484;2023-09-19T00:40:29;100250.50;;;23.89;44.44
82807;BME280;72563;44.816;20.484;2023-09-19T00:42:57;100252.28;;;23.55;45.29
82807;BME280;72563;44.816;20.484;2023-09-19T00:45:26;100249.63;;;24.06;45.56
82807;BME280;72563;44.816;20.484;2023-09-19T00:47:51;100250.75;;;24.19;43.80
82807;BME280;72563;44.816;20.484;2023-09-19T00:50:19;100255.28;;;24.57;43.63
82807;BME280;72563;44.816;20.484;2023-09-19T00:52:47;100259.53;;;24.80;42.80
82807;BME280;72563;44.816;20.484;2023-09-19T00:55:15;100260.75;;;24.24;44.18
82807;BME280;72563;44.816;20.484;2023-09-19T00:57:41;100252.22;;;24.38;44.38
82807;BME280;72563;44.816;20.484;2023-09-19T01:00:08;100244.72;;;24.68;43.18
82807;BME280;72563;44.816;20.484;2023-09-19T01:02:37;100236.06;;;24.49;43.96
82807;BME280;72563;44.816;20.484;2023-09-19T01:05:03;100233.06;;;24.66;44.11
82807;BME280;72563;44.816;20.484;2023-09-19T01:07:31;100244.88;;;24.51;43.37
82807;BME280;72563;44.816;20.484;2023-09-19T01:09:58;100243.91;;;24.68;43.79
82807;BME280;72563;44.816;20.484;2023-09-19T01:12:35;100246.84;;;24.54;44.29
82807;BME280;72563;44.816;20.484;2023-09-19T01:18:07;100242.50;;;24.49;43.35
82807;BME280;72563;44.816;20.484;2023-09-19T01:26:12;100249.97;;;24.66;44.01
82807;BME280;72563;44.816;20.484;2023-09-19T01:28:53;100252.81;;;24.12;43.67
82807;BME280;72563;44.816;20.484;2023-09-19T01:31:24;100261.00;;;23.74;45.64
82807;BME280;72563;44.816;20.484;2023-09-19T01:34:00;100252.66;;;23.57;45.18
82807;BME280;72563;44.816;20.484;2023-09-19T01:36:31;100242.81;;;24.04;44.54
82807;BME280;72563;44.816;20.484;2023-09-19T01:38:59;100252.53;;;24.50;43.57
82807;BME280;72563;44.816;20.484;2023-09-19T01:44:59;100253.25;;;24.58;42.79
82807;BME280;72563;44.816;20.484;2023-09-19T01:47:46;100248.97;;;24.39;43.55
82807;BME280;72563;44.816;20.484;2023-09-19T01:50:17;100258.06;;;23.99;45.30
82807;BME280;72563;44.816;20.484;2023-09-19T01:52:53;100256.28;;;24.30;43.30
82807;BME280;72563;44.816;20.484;2023-09-19T01:55:20;100255.09;;;24.31;43.03
82807;BME280;72563;44.816;20.484;2023-09-19T01:58:14;100241.91;;;24.17;43.37
82807;BME280;72563;44.816;20.484;2023-09-19T02:00:42;100243.59;;;24.08;43.11
82807;BME280;72563;44.816;20.484;2023-09-19T02:03:11;100236.22;;;24.28;43.33
82807;BME280;72563;44.816;20.484;2023-09-19T02:05:37;100230.28;;;24.19;42.71
82807;BME280;72563;44.816;20.484;2023-09-19T02:08:05;100232.38;;;24.55;42.71
82807;BME280;72563;44.816;20.484;2023-09-19T02:10:30;100227.78;;;24.28;43.03
82807;BME280;72563;44.816;20.484;2023-09-19T02:12:56;100242.00;;;24.00;42.88
82807;BME280;72563;44.816;20.484;2023-09-19T02:15:22;100228.59;;;24.28;44.02
82807;BME280;72563;44.816;20.484;2023-09-19T02:17:47;100236.38;;;24.58;43.32
82807;BME280;72563;44.816;20.484;2023-09-19T02:20:13;100227.38;;;24.77;42.62
82807;BME280;72563;44.816;20.484;2023-09-19T02:22:42;100229.19;;;24.50;42.54
82807;BME280;72563;44.816;20.484;2023-09-19T02:25:09;100232.31;;;24.62;42.24
82807;BME280;72563;44.816;20.484;2023-09-19T02:27:34;100229.66;;;24.41;43.46
82807;BME280;72563;44.816;20.484;2023-09-19T02:30:01;100225.91;;;24.11;43.59
82807;BME280;72563;44.816;20.484;2023-09-19T02:32:30;100235.91;;;24.19;43.10
82807;BME280;72563;44.816;20.484;2023-09-19T02:34:57;100238.59;;;24.29;44.20
82807;BME280;72563;44.816;20.484;2023-09-19T02:37:26;100222.75;;;24.53;43.51
82807;BME280;72563;44.816;20.484;2023-09-19T02:39:52;100232.66;;;24.20;44.26
82807;BME280;72563;44.816;20.484;2023-09-19T02:42:17;100235.22;;;24.52;43.41
82807;BME280;72563;44.816;20.484;2023-09-19T02:44:43;100233.56;;;24.03;44.41
82807;BME280;72563;44.816;20.484;2023-09-19T02:47:12;100237.56;;;23.99;45.41
82807;BME280;72563;44.816;20.484;2023-09-19T02:49:37;100240.75;;;24.11;45.34
82807;BME280;72563;44.816;20.484;2023-09-19T02:52:03;100231.41;;;24.28;45.04
82807;BME280;72563;44.816;20.484;2023-09-19T02:54:29;100232.84;;;24.47;44.87
82807;BME280;72563;44.816;20.484;2023-09-19T02:56:54;100237.81;;;24.29;45.40
82807;BME280;72563;44.816;20.484;2023-09-19T02:59:20;100234.13;;;24.39;45.52
82807;BME280;72563;44.816;20.484;2023-09-19T03:01:46;100217.91;;;24.02;46.54
82807;BME280;72563;44.816;20.484;2023-09-19T03:04:13;100213.38;;;24.19;46.18
82807;BME280;72563;44.816;20.484;2023-09-19T03:06:42;100209.34;;;24.20;46.12
82807;BME280;72563;44.816;20.484;2023-09-19T03:09:10;100193.63;;;24.26;46.04
82807;BME280;72563;44.816;20.484;2023-09-19T03:11:36;100183.00;;;23.92;47.10
82807;BME280;72563;44.816;20.484;2023-09-19T03:14:02;100165.94;;;24.21;46.83
82807;BME280;72563;44.816;20.484;2023-09-19T03:16:28;100153.59;;;24.08;45.88
82807;BME280;72563;44.816;20.484;2023-09-19T03:18:53;100154.72;;;24.17;46.75
82807;BME280;72563;44.816;20.484;2023-09-19T03:21:19;100147.81;;;24.25;46.80
82807;BME280;72563;44.816;20.484;2023-09-19T03:23:44;100147.84;;;23.63;47.65
82807;BME280;72563;44.816;20.484;2023-09-19T03:26:13;100141.47;;;23.56;48.36
82807;BME280;72563;44.816;20.484;2023-09-19T03:28:41;100152.81;;;23.38;47.58
82807;BME280;72563;44.816;20.484;2023-09-19T03:31:08;100162.38;;;23.48;47.86
82807;BME280;72563;44.816;20.484;2023-09-19T03:33:34;100151.31;;;23.85;47.48
82807;BME280;72563;44.816;20.484;2023-09-19T03:36:01;100157.38;;;23.83;46.60
82807;BME280;72563;44.816;20.484;2023-09-19T03:38:30;100151.88;;;24.21;46.17
82807;BME280;72563;44.816;20.484;2023-09-19T03:40:56;100159.28;;;23.94;46.59
82807;BME280;72563;44.816;20.484;2023-09-19T03:43:22;100148.75;;;24.12;46.42
82807;BME280;72563;44.816;20.484;2023-09-19T03:45:47;100141.19;;;24.49;45.25
82807;BME280;72563;44.816;20.484;2023-09-19T03:48:14;100143.72;;;24.78;44.90
82807;BME280;72563;44.816;20.484;2023-09-19T03:50:39;100137.31;;;24.70;44.36
82807;BME280;72563;44.816;20.484;2023-09-19T03:53:05;100136.19;;;24.64;45.44
82807;BME280;72563;44.816;20.484;2023-09-19T03:55:32;100137.06;;;24.57;45.32
82807;BME280;72563;44.816;20.484;2023-09-19T03:57:58;100135.94;;;24.51;45.24
82807;BME280;72563;44.816;20.484;2023-09-19T04:00:23;100146.66;;;24.23;45.53
82807;BME280;72563;44.816;20.484;2023-09-19T04:02:52;100157.69;;;23.92;46.03
82807;BME280;72563;44.816;20.484;2023-09-19T04:05:18;100156.28;;;24.22;45.79
82807;BME280;72563;44.816;20.484;2023-09-19T04:07:44;100161.84;;;23.70;47.97
82807;BME280;72563;44.816;20.484;2023-09-19T04:10:10;100167.31;;;23.95;47.26
82807;BME280;72563;44.816;20.484;2023-09-19T04:12:37;100174.00;;;24.63;45.41
82807;BME280;72563;44.816;20.484;2023-09-19T04:15:05;100183.47;;;24.39;45.15
82807;BME280;72563;44.816;20.484;2023-09-19T04:17:30;100189.88;;;24.39;45.36
82807;BME280;72563;44.816;20.484;2023-09-19T04:19:58;100179.66;;;24.59;45.46
82807;BME280;72563;44.816;20.484;2023-09-19T04:22:23;100193.13;;;24.38;46.09
82807;BME280;72563;44.816;20.484;2023-09-19T04:24:49;100200.03;;;24.78;45.18
82807;BME280;72563;44.816;20.484;2023-09-19T04:27:14;100188.06;;;24.63;44.65
82807;BME280;72563;44.816;20.484;2023-09-19T04:29:40;100206.53;;;24.67;44.92
82807;BME280;72563;44.816;20.484;2023-09-19T04:32:07;100204.78;;;24.84;45.01
82807;BME280;72563;44.816;20.484;2023-09-19T04:34:33;100211.25;;;24.81;44.82
82807;BME280;72563;44.816;20.484;2023-09-19T04:36:59;100201.13;;;24.39;46.06
82807;BME280;72563;44.816;20.484;2023-09-19T04:39:26;100209.13;;;23.89;47.21
82807;BME280;72563;44.816;20.484;2023-09-19T04:41:52;100200.53;;;24.18;46.61
82807;BME280;72563;44.816;20.484;2023-09-19T04:44:18;100202.97;;;24.12;46.26
82807;BME280;72563;44.816;20.484;2023-09-19T04:46:44;100209.06;;;23.97;46.48
82807;BME280;72563;44.816;20.484;2023-09-19T04:49:11;100205.38;;;24.14;46.67
82807;BME280;72563;44.816;20.484;2023-09-19T04:51:37;100200.28;;;24.46;45.14
82807;BME280;72563;44.816;20.484;2023-09-19T04:54:03;100208.72;;;24.49;45.76
82807;BME280;72563;44.816;20.484;2023-09-19T04:56:29;100217.03;;;24.63;45.39
82807;BME280;72563;44.816;20.484;2023-09-19T04:58:54;100214.94;;;24.71;45.53
82807;BME280;72563;44.816;20.484;2023-09-19T05:01:20;100219.34;;;24.72;45.06
82807;BME280;72563;44.816;20.484;2023-09-19T05:03:48;100222.31;;;25.02;44.40
82807;BME280;72563;44.816;20.484;2023-09-19T05:06:20;100250.97;;;25.27;44.14
82807;BME280;72563;44.816;20.484;2023-09-19T05:08:47;100249.25;;;25.03;43.90
82807;BME280;72563;44.816;20.484;2023-09-19T05:11:20;100253.75;;;25.34;43.11
82807;BME280;72563;44.816;20.484;2023-09-19T05:13:49;100247.34;;;25.27;44.14
82807;BME280;72563;44.816;20.484;2023-09-19T05:16:16;100243.44;;;24.80;44.50
82807;BME280;72563;44.816;20.484;2023-09-19T05:18:41;100245.09;;;25.15;44.25
82807;BME280;72563;44.816;20.484;2023-09-19T05:21:07;100247.03;;;24.81;44.64
82807;BME280;72563;44.816;20.484;2023-09-19T05:23:33;100242.28;;;24.70;44.78
82807;BME280;72563;44.816;20.484;2023-09-19T05:25:59;100229.28;;;24.87;44.81
82807;BME280;72563;44.816;20.484;2023-09-19T05:28:26;100232.88;;;24.91;44.87
82807;BME280;72563;44.816;20.484;2023-09-19T05:30:52;100233.00;;;24.77;44.82
82807;BME280;72563;44.816;20.484;2023-09-19T05:33:19;100223.81;;;24.73;44.41
82807;BME280;72563;44.816;20.484;2023-09-19T05:35:45;100200.44;;;24.73;45.16
82807;BME280;72563;44.816;20.484;2023-09-19T05:38:12;100205.69;;;24.74;45.46
82807;BME280;72563;44.816;20.484;2023-09-19T05:40:39;100199.72;;;24.65;45.32
82807;BME280;72563;44.816;20.484;2023-09-19T05:43:08;100206.81;;;24.80;44.83
82807;BME280;72563;44.816;20.484;2023-09-19T05:45:34;100202.56;;;24.61;45.12
82807;BME280;72563;44.816;20.484;2023-09-19T05:48:08;100200.53;;;24.62;45.58
82807;BME280;72563;44.816;20.484;2023-09-19T05:50:34;100206.66;;;24.53;44.86
82807;BME280;72563;44.816;20.484;2023-09-19T05:52:59;100211.75;;;24.25;46.41
82807;BME280;72563;44.816;20.484;2023-09-19T05:55:25;100195.50;;;24.43;45.78
82807;BME280;72563;44.816;20.484;2023-09-19T05:57:52;100200.53;;;24.18;46.14
82807;BME280;72563;44.816;20.484;2023-09-19T06:00:21;100197.47;;;24.46;46.10
82807;BME280;72563;44.816;20.484;2023-09-19T06:02:55;100196.97;;;25.02;44.60
82807;BME280;72563;44.816;20.484;2023-09-19T06:05:22;100196.63;;;24.93;44.16
82807;BME280;72563;44.816;20.484;2023-09-19T06:07:48;100193.44;;;25.28;44.15
82807;BME280;72563;44.816;20.484;2023-09-19T06:10:14;100205.78;;;24.60;45.06
82807;BME280;72563;44.816;20.484;2023-09-19T06:12:41;100217.50;;;24.99;44.33
82807;BME280;72563;44.816;20.484;2023-09-19T06:15:10;100210.22;;;25.02;44.38
82807;BME280;72563;44.816;20.484;2023-09-19T06:17:42;100210.41;;;25.21;44.44
82807;BME280;72563;44.816;20.484;2023-09-19T06:20:08;100206.09;;;25.47;43.25
82807;BME280;72563;44.816;20.484;2023-09-19T06:22:43;100201.56;;;25.83;42.80
82807;BME280;72563;44.816;20.484;2023-09-19T06:25:10;100207.25;;;26.06;41.99
82807;BME280;72563;44.816;20.484;2023-09-19T06:27:40;100213.53;;;25.91;41.94
82807;BME280;72563;44.816;20.484;2023-09-19T06:30:10;100201.47;;;26.17;41.73
82807;BME280;72563;44.816;20.484;2023-09-19T06:32:37;100196.97;;;26.46;41.18
82807;BME280;72563;44.816;20.484;2023-09-19T06:35:02;100199.59;;;26.34;41.25
82807;BME280;72563;44.816;20.484;2023-09-19T06:37:29;100209.19;;;26.13;42.35
82807;BME280;72563;44.816;20.484;2023-09-19T06:39:54;100202.19;;;26.24;42.10
82807;BME280;72563;44.816;20.484;2023-09-19T06:42:20;100227.75;;;25.54;43.05
82807;BME280;72563;44.816;20.484;2023-09-19T06:44:48;100221.94;;;24.97;45.25
82807;BME280;72563;44.816;20.484;2023-09-19T06:47:13;100222.63;;;25.45;44.09
82807;BME280;72563;44.816;20.484;2023-09-19T06:49:41;100225.31;;;25.56;43.90
82807;BME280;72563;44.816;20.484;2023-09-19T06:52:09;100227.47;;;25.44;43.96
82807;BME280;72563;44.816;20.484;2023-09-19T06:54:35;100219.44;;;25.73;43.39
82807;BME280;72563;44.816;20.484;2023-09-19T06:57:01;100220.59;;;25.45;43.72
82807;BME280;72563;44.816;20.484;2023-09-19T06:59:27;100215.09;;;25.35;44.37
82807;BME280;72563;44.816;20.484;2023-09-19T07:01:52;100223.69;;;25.21;44.30
82807;BME280;72563;44.816;20.484;2023-09-19T07:04:18;100219.91;;;25.34;44.61
82807;BME280;72563;44.816;20.484;2023-09-19T07:06:50;100225.84;;;26.04;43.13
82807;BME280;72563;44.816;20.484;2023-09-19T07:09:16;100230.28;;;26.32;42.42
82807;BME280;72563;44.816;20.484;2023-09-19T07:11:42;100229.09;;;26.79;41.54
82807;BME280;72563;44.816;20.484;2023-09-19T07:14:08;100228.28;;;27.01;41.23
82807;BME280;72563;44.816;20.484;2023-09-19T07:16:37;100233.47;;;27.26;40.47
82807;BME280;72563;44.816;20.484;2023-09-19T07:19:04;100236.44;;;27.39;40.23
82807;BME280;72563;44.816;20.484;2023-09-19T07:21:30;100240.78;;;27.82;39.30
82807;BME280;72563;44.816;20.484;2023-09-19T07:23:56;100243.13;;;27.48;39.89
82807;BME280;72563;44.816;20.484;2023-09-19T07:26:21;100240.97;;;27.36;40.81
82807;BME280;72563;44.816;20.484;2023-09-19T07:28:47;100254.53;;;28.20;39.07
82807;BME280;72563;44.816;20.484;2023-09-19T07:31:12;100250.91;;;28.51;38.56
82807;BME280;72563;44.816;20.484;2023-09-19T07:33:39;100246.88;;;27.81;39.13
82807;BME280;72563;44.816;20.484;2023-09-19T07:36:05;100249.19;;;27.86;40.15
82807;BME280;72563;44.816;20.484;2023-09-19T07:38:31;100233.97;;;28.00;39.86
82807;BME280;72563;44.816;20.484;2023-09-19T07:41:01;100239.44;;;28.75;38.17
82807;BME280;72563;44.816;20.484;2023-09-19T07:43:27;100243.69;;;28.66;39.21
82807;BME280;72563;44.816;20.484;2023-09-19T07:45:53;100243.53;;;29.18;37.42
82807;BME280;72563;44.816;20.484;2023-09-19T07:48:19;100259.00;;;29.14;38.02
82807;BME280;72563;44.816;20.484;2023-09-19T07:50:44;100253.53;;;29.52;36.65
82807;BME280;72563;44.816;20.484;2023-09-19T07:53:10;100256.78;;;29.37;37.49
82807;BME280;72563;44.816;20.484;2023-09-19T07:55:38;100249.31;;;29.72;36.51
82807;BME280;72563;44.816;20.484;2023-09-19T07:58:04;100256.50;;;30.02;35.93
82807;BME280;72563;44.816;20.484;2023-09-19T08:00:32;100258.53;;;29.89;36.02
82807;BME280;72563;44.816;20.484;2023-09-19T08:03:00;100259.66;;;29.21;36.70
82807;BME280;72563;44.816;20.484;2023-09-19T08:05:26;100265.69;;;29.52;36.93
82807;BME280;72563;44.816;20.484;2023-09-19T08:07:52;100266.75;;;29.71;36.21
82807;BME280;72563;44.816;20.484;2023-09-19T08:10:21;100276.78;;;30.29;34.87
82807;BME280;72563;44.816;20.484;2023-09-19T08:12:48;100271.28;;;30.09;35.48
82807;BME280;72563;44.816;20.484;2023-09-19T08:15:15;100274.72;;;30.30;36.37
82807;BME280;72563;44.816;20.484;2023-09-19T08:17:41;100279.44;;;30.20;35.50
82807;BME280;72563;44.816;20.484;2023-09-19T08:20:08;100279.69;;;30.63;34.91
82807;BME280;72563;44.816;20.484;2023-09-19T08:22:51;100282.97;;;30.99;34.47
82807;BME280;72563;44.816;20.484;2023-09-19T08:25:20;100282.31;;;30.70;34.85
82807;BME280;72563;44.816;20.484;2023-09-19T08:27:47;100279.25;;;30.90;34.92
82807;BME280;72563;44.816;20.484;2023-09-19T08:30:16;100284.69;;;30.97;34.36
82807;BME280;72563;44.816;20.484;2023-09-19T08:32:41;100287.31;;;30.91;34.74
82807;BME280;72563;44.816;20.484;2023-09-19T08:35:11;100273.47;;;30.31;35.16
82807;BME280;72563;44.816;20.484;2023-09-19T08:37:37;100281.78;;;29.84;36.43
82807;BME280;72563;44.816;20.484;2023-09-19T08:40:02;100280.22;;;30.08;36.63
82807;BME280;72563;44.816;20.484;2023-09-19T08:42:28;100282.63;;;29.97;36.22
82807;BME280;72563;44.816;20.484;2023-09-19T08:44:55;100279.19;;;30.02;36.47
82807;BME280;72563;44.816;20.484;2023-09-19T08:47:33;100285.63;;;29.48;37.12
82807;BME280;72563;44.816;20.484;2023-09-19T08:50:11;100281.91;;;29.80;37.15
82807;BME280;72563;44.816;20.484;2023-09-19T08:52:43;100283.63;;;29.62;37.03
82807;BME280;72563;44.816;20.484;2023-09-19T08:55:13;100279.41;;;29.82;37.14
82807;BME280;72563;44.816;20.484;2023-09-19T08:57:45;100287.16;;;29.94;36.71
82807;BME280;72563;44.816;20.484;2023-09-19T09:00:14;100287.50;;;29.96;36.99
82807;BME280;72563;44.816;20.484;2023-09-19T09:02:43;100283.47;;;29.81;37.04
82807;BME280;72563;44.816;20.484;2023-09-19T09:05:09;100280.81;;;29.33;37.60
82807;BME280;72563;44.816;20.484;2023-09-19T09:07:39;100289.47;;;29.42;38.24
82807;BME280;72563;44.816;20.484;2023-09-19T09:10:06;100285.31;;;29.88;37.31
82807;BME280;72563;44.816;20.484;2023-09-19T09:12:32;100280.44;;;29.88;36.88
82807;BME280;72563;44.816;20.484;2023-09-19T09:14:59;100273.31;;;30.09;36.78
82807;BME280;72563;44.816;20.484;2023-09-19T09:17:26;100271.78;;;30.46;36.25
82807;BME280;72563;44.816;20.484;2023-09-19T09:19:52;100269.38;;;30.32;36.32
82807;BME280;72563;44.816;20.484;2023-09-19T09:22:18;100263.59;;;30.60;35.98
82807;BME280;72563;44.816;20.484;2023-09-19T09:24:56;100266.41;;;30.60;35.67
82807;BME280;72563;44.816;20.484;2023-09-19T09:27:29;100261.13;;;30.84;35.28
82807;BME280;72563;44.816;20.484;2023-09-19T09:29:54;100262.88;;;31.16;34.52
82807;BME280;72563;44.816;20.484;2023-09-19T09:34:53;100257.25;;;31.03;34.63
82807;BME280;72563;44.816;20.484;2023-09-19T09:37:20;100265.47;;;30.76;35.25
82807;BME280;72563;44.816;20.484;2023-09-19T09:39:57;100259.47;;;31.21;34.57
82807;BME280;72563;44.816;20.484;2023-09-19T09:42:34;100257.94;;;31.07;34.39
82807;BME280;72563;44.816;20.484;2023-09-19T09:45:20;100263.22;;;31.73;33.78
82807;BME280;72563;44.816;20.484;2023-09-19T09:47:58;100262.53;;;31.91;33.45
82807;BME280;72563;44.816;20.484;2023-09-19T09:50:30;100273.31;;;32.18;33.29
82807;BME280;72563;44.816;20.484;2023-09-19T09:56:08;100260.88;;;32.33;32.81
82807;BME280;72563;44.816;20.484;2023-09-19T09:58:36;100265.13;;;32.68;32.43
82807;BME280;72563;44.816;20.484;2023-09-19T10:01:03;100260.75;;;32.86;32.09
82807;BME280;72563;44.816;20.484;2023-09-19T10:03:40;100258.88;;;33.01;31.52
82807;BME280;72563;44.816;20.484;2023-09-19T10:06:13;100257.88;;;32.95;31.73
82807;BME280;72563;44.816;20.484;2023-09-19T10:08:58;100256.84;;;33.10;31.41
82807;BME280;72563;44.816;20.484;2023-09-19T10:14:10;100256.38;;;33.30;30.98
82807;BME280;72563;44.816;20.484;2023-09-19T10:16:41;100264.63;;;33.37;30.99
82807;BME280;72563;44.816;20.484;2023-09-19T10:19:16;100258.53;;;32.90;31.48
82807;BME280;72563;44.816;20.484;2023-09-19T10:21:48;100260.81;;;32.55;32.38
82807;BME280;72563;44.816;20.484;2023-09-19T10:24:15;100252.16;;;32.67;32.13
82807;BME280;72563;44.816;20.484;2023-09-19T10:26:44;100253.88;;;32.25;32.79
82807;BME280;72563;44.816;20.484;2023-09-19T10:29:13;100247.16;;;32.10;32.79
82807;BME280;72563;44.816;20.484;2023-09-19T10:31:42;100249.25;;;32.19;32.57
82807;BME280;72563;44.816;20.484;2023-09-19T10:34:14;100248.50;;;32.27;32.87
82807;BME280;72563;44.816;20.484;2023-09-19T10:36:44;100249.75;;;32.57;32.63
82807;BME280;72563;44.816;20.484;2023-09-19T10:39:11;100247.03;;;32.53;32.42
82807;BME280;72563;44.816;20.484;2023-09-19T10:41:39;100239.81;;;32.40;32.57
82807;BME280;72563;44.816;20.484;2023-09-19T10:44:05;100234.13;;;32.40;32.72
82807;BME280;72563;44.816;20.484;2023-09-19T10:46:34;100230.28;;;32.25;33.30
82807;BME280;72563;44.816;20.484;2023-09-19T10:49:00;100228.31;;;31.82;33.45
82807;BME280;72563;44.816;20.484;2023-09-19T10:51:30;100229.81;;;32.26;32.98
82807;BME280;72563;44.816;20.484;2023-09-19T10:54:11;100219.88;;;32.40;32.77
82807;BME280;72563;44.816;20.484;2023-09-19T10:56:42;100217.25;;;32.45;32.46
82807;BME280;72563;44.816;20.484;2023-09-19T10:59:11;100215.91;;;32.28;33.04
82807;BME280;72563;44.816;20.484;2023-09-19T11:02:15;100206.44;;;32.40;32.91
82807;BME280;72563;44.816;20.484;2023-09-19T11:04:42;100206.59;;;32.37;32.56
82807;BME280;72563;44.816;20.484;2023-09-19T11:07:10;100205.34;;;32.07;32.95
82807;BME280;72563;44.816;20.484;2023-09-19T11:09:49;100201.00;;;32.24;33.43
82807;BME280;72563;44.816;20.484;2023-09-19T11:14:56;100191.66;;;31.19;35.26
82807;BME280;72563;44.816;20.484;2023-09-19T11:17:31;100192.81;;;31.96;33.88
82807;BME280;72563;44.816;20.484;2023-09-19T11:30:47;100175.69;;;31.86;34.16
82807;BME280;72563;44.816;20.484;2023-09-19T11:36:10;100194.50;;;32.63;33.18
82807;BME280;72563;44.816;20.484;2023-09-19T11:46:27;100205.47;;;32.34;33.18
82807;BME280;72563;44.816;20.484;2023-09-19T11:48:54;100208.94;;;31.46;34.86
82807;BME280;72563;44.816;20.484;2023-09-19T11:51:22;100213.91;;;31.55;34.73
82807;BME280;72563;44.816;20.484;2023-09-19T11:53:50;100191.63;;;30.97;36.05
82807;BME280;72563;44.816;20.484;2023-09-19T11:56:19;100186.44;;;30.37;37.21
82807;BME280;72563;44.816;20.484;2023-09-19T11:58:46;100184.13;;;29.69;39.06
82807;BME280;72563;44.816;20.484;2023-09-19T12:01:15;100182.38;;;29.59;39.18
82807;BME280;72563;44.816;20.484;2023-09-19T12:03:47;100184.72;;;29.89;38.70
82807;BME280;72563;44.816;20.484;2023-09-19T12:06:16;100195.41;;;30.10;38.50
82807;BME280;72563;44.816;20.484;2023-09-19T12:08:42;100194.47;;;29.88;38.72
82807;BME280;72563;44.816;20.484;2023-09-19T12:11:17;100186.66;;;29.92;38.83
82807;BME280;72563;44.816;20.484;2023-09-19T12:13:46;100187.72;;;29.57;39.73
82807;BME280;72563;44.816;20.484;2023-09-19T12:16:18;100183.50;;;29.48;39.99
82807;BME280;72563;44.816;20.484;2023-09-19T12:18:47;100202.09;;;29.78;39.22
82807;BME280;72563;44.816;20.484;2023-09-19T12:21:24;100208.91;;;29.93;39.78
82807;BME280;72563;44.816;20.484;2023-09-19T12:26:30;100203.00;;;30.13;39.19
82807;BME280;72563;44.816;20.484;2023-09-19T12:28:59;100211.31;;;30.07;39.21
82807;BME280;72563;44.816;20.484;2023-09-19T12:31:27;100198.22;;;30.10;39.11
82807;BME280;72563;44.816;20.484;2023-09-19T12:33:56;100201.66;;;30.05;39.46
82807;BME280;72563;44.816;20.484;2023-09-19T12:36:23;100192.22;;;29.41;40.69
82807;BME280;72563;44.816;20.484;2023-09-19T12:38:55;100186.50;;;29.70;40.22
82807;BME280;72563;44.816;20.484;2023-09-19T12:41:21;100193.13;;;29.92;39.93
82807;BME280;72563;44.816;20.484;2023-09-19T12:43:54;100196.19;;;29.98;39.88
82807;BME280;72563;44.816;20.484;2023-09-19T12:46:21;100206.41;;;29.95;39.86
82807;BME280;72563;44.816;20.484;2023-09-19T12:49:16;100211.41;;;29.91;39.92
82807;BME280;72563;44.816;20.484;2023-09-19T12:51:48;100211.94;;;29.74;40.18
82807;BME280;72563;44.816;20.484;2023-09-19T12:54:14;100211.88;;;29.48;40.97
82807;BME280;72563;44.816;20.484;2023-09-19T12:56:42;100226.00;;;29.65;40.62
82807;BME280;72563;44.816;20.484;2023-09-19T12:59:13;100240.41;;;29.29;41.16
82807;BME280;72563;44.816;20.484;2023-09-19T13:01:40;100230.69;;;29.42;41.77
82807;BME280;72563;44.816;20.484;2023-09-19T13:06:40;100235.38;;;29.20;41.40
82807;BME280;72563;44.816;20.484;2023-09-19T13:09:09;100226.41;;;29.06;42.06
82807;BME280;72563;44.816;20.484;2023-09-19T13:11:38;100225.91;;;29.11;41.92
82807;BME280;72563;44.816;20.484;2023-09-19T13:14:35;100233.34;;;29.05;41.93
82807;BME280;72563;44.816;20.484;2023-09-19T13:17:07;100226.44;;;29.22;41.63
82807;BME280;72563;44.816;20.484;2023-09-19T13:19:47;100222.31;;;29.52;41.03
82807;BME280;72563;44.816;20.484;2023-09-19T13:22:37;100217.53;;;29.48;40.81
82807;BME280;72563;44.816;20.484;2023-09-19T13:25:10;100220.66;;;29.67;40.52
82807;BME280;72563;44.816;20.484;2023-09-19T13:27:44;100227.03;;;29.71;40.85
82807;BME280;72563;44.816;20.484;2023-09-19T13:30:13;100219.66;;;29.73;41.13
82807;BME280;72563;44.816;20.484;2023-09-19T13:32:39;100221.72;;;29.85;40.75
82807;BME280;72563;44.816;20.484;2023-09-19T13:35:07;100224.13;;;29.99;40.45
82807;BME280;72563;44.816;20.484;2023-09-19T13:37:37;100235.25;;;30.06;40.77